sensor_id;sensor_type;location;lat;lon;timestamp;pressure;altitude;pressure_sealevel;temperature;humidity
57562;BME280;43397;51.530;5.974;2023-07-13T12:42:20;71430.69;;;-145.90;26.15
57562;BME280;43397;51.530;5.974;2023-07-13T12:44:46;59163.31;;;-145.90;100.00
57562;BME280;43397;51.530;5.974;2023-07-13T12:49:42;69291.28;;;-145.90;nan
57562;BME280;43397;51.530;5.974;2023-07-13T12:52:14;69465.31;;;-145.90;nan
57562;BME280;43397;51.530;5.974;2023-07-13T12:54:41;69689.94;;;-145.90;nan
57562;BME280;43397;51.530;5.974;2023-07-13T12:57:13;69694.00;;;-145.90;nan
57562;BME280;43397;51.530;5.974;2023-07-13T12:59:43;70398.28;;;-145.90;nan
57562;BME280;43397;51.530;5.974;2023-07-13T13:02:23;70143.25;;;-145.90;nan
57562;BME280;43397;51.530;5.974;2023-07-13T13:04:52;70367.94;;;-145.90;nan
57562;BME280;43397;51.530;5.974;2023-07-13T13:07:18;70467.09;;;-145.90;nan
57562;BME280;43397;51.530;5.974;2023-07-13T13:09:43;70319.34;;;-145.90;nan
57562;BME280;43397;51.530;5.974;2023-07-13T13:12:09;70177.66;;;-145.90;nan
57562;BME280;43397;51.530;5.974;2023-07-13T13:14:35;70139.22;;;-145.90;nan
57562;BME280;43397;51.530;5.974;2023-07-13T13:17:02;70365.91;;;-145.90;nan
57562;BME280;43397;51.530;5.974;2023-07-13T13:19:33;70345.66;;;-145.90;nan
57562;BME280;43397;51.530;5.974;2023-07-13T13:21:58;70404.34;;;-145.90;nan
57562;BME280;43397;51.530;5.974;2023-07-13T13:24:27;70216.13;;;-145.90;nan
57562;BME280;43397;51.530;5.974;2023-07-13T13:26:54;70179.69;;;-145.90;nan
57562;BME280;43397;51.530;5.974;2023-07-13T13:29:21;70023.84;;;-145.90;nan
57562;BME280;43397;51.530;5.974;2023-07-13T13:31:48;69918.63;;;-145.90;nan
57562;BME280;43397;51.530;5.974;2023-07-13T13:34:16;70179.69;;;-145.90;nan
57562;BME280;43397;51.530;5.974;2023-07-13T13:36:43;70086.59;;;-145.90;nan
57562;BME280;43397;51.530;5.974;2023-07-13T13:39:19;69821.47;;;-145.90;nan
57562;BME280;43397;51.530;5.974;2023-07-13T13:41:46;69736.47;;;-145.90;nan
57562;BME280;43397;51.530;5.974;2023-07-13T13:44:13;70003.63;;;-145.90;nan
57562;BME280;43397;51.530;5.974;2023-07-13T13:46:39;70483.28;;;-145.90;nan
57562;BME280;43397;51.530;5.974;2023-07-13T13:49:08;70738.34;;;-145.90;nan
57562;BME280;43397;51.530;5.974;2023-07-13T13:51:39;70940.75;;;-145.90;nan
57562;BME280;43397;51.530;5.974;2023-07-13T13:54:10;71171.53;;;-145.90;nan
57562;BME280;43397;51.530;5.974;2023-07-13T13:56:36;71317.31;;;-145.90;nan
57562;BME280;43397;51.530;5.974;2023-07-13T13:59:02;71529.88;;;-145.90;nan
57562;BME280;43397;51.530;5.974;2023-07-13T14:01:29;71400.31;;;-145.90;nan
57562;BME280;43397;51.530;5.974;2023-07-13T14:03:56;71489.38;;;-145.90;nan
57562;BME280;43397;51.530;5.974;2023-07-13T14:06:22;71562.28;;;-145.90;nan
57562;BME280;43397;51.530;5.974;2023-07-13T14:08:49;71594.66;;;-145.90;nan
57562;BME280;43397;51.530;5.974;2023-07-13T14:11:17;71527.84;;;-145.90;nan
57562;BME280;43397;51.530;5.974;2023-07-13T14:13:45;71457.00;;;-145.90;nan
57562;BME280;43397;51.530;5.974;2023-07-13T14:16:14;71572.41;;;-145.90;nan
57562;BME280;43397;51.530;5.974;2023-07-13T14:18:41;71604.78;;;-145.90;nan
57562;BME280;43397;51.530;5.974;2023-07-13T14:21:13;71493.44;;;-145.90;nan
57562;BME280;43397;51.530;5.974;2023-07-13T14:23:39;71232.28;;;-145.90;nan
57562;BME280;43397;51.530;5.974;2023-07-13T14:26:10;71471.16;;;-145.90;nan
57562;BME280;43397;51.530;5.974;2023-07-13T14:28:38;71442.81;;;-145.90;nan
57562;BME280;43397;51.530;5.974;2023-07-13T14:31:06;71367.91;;;-145.90;nan
57562;BME280;43397;51.530;5.974;2023-07-13T14:33:31;71616.94;;;-145.90;nan
57562;BME280;43397;51.530;5.974;2023-07-13T14:35:57;71224.19;;;-145.90;nan
57562;BME280;43397;51.530;5.974;2023-07-13T14:38:23;71305.16;;;-145.90;nan
57562;BME280;43397;51.530;5.974;2023-07-13T14:40:49;71598.72;;;-145.90;nan
57562;BME280;43397;51.530;5.974;2023-07-13T14:43:17;71286.94;;;-145.90;nan
57562;BME280;43397;51.530;5.974;2023-07-13T14:45:46;71179.63;;;-145.90;nan
57562;BME280;43397;51.530;5.974;2023-07-13T14:48:13;71327.44;;;-145.90;nan
57562;BME280;43397;51.530;5.974;2023-07-13T14:50:40;71307.19;;;-145.90;nan
57562;BME280;43397;51.530;5.974;2023-07-13T14:53:09;71515.72;;;-145.90;nan
57562;BME280;43397;51.530;5.974;2023-07-13T14:55:35;71578.47;;;-145.90;nan
57562;BME280;43397;51.530;5.974;2023-07-13T14:58:01;71888.25;;;-145.90;nan
57562;BME280;43397;51.530;5.974;2023-07-13T15:00:29;71621.00;;;-145.90;nan
57562;BME280;43397;51.530;5.974;2023-07-13T15:02:56;71471.16;;;-145.90;nan
57562;BME280;43397;51.530;5.974;2023-07-13T15:05:25;71724.25;;;-145.90;nan
57562;BME280;43397;51.530;5.974;2023-07-13T15:07:51;71594.66;;;-145.90;nan
57562;BME280;43397;51.530;5.974;2023-07-13T15:10:20;71584.53;;;-145.90;nan
57562;BME280;43397;51.530;5.974;2023-07-13T15:12:47;71671.59;;;-145.90;nan
57562;BME280;43397;51.530;5.974;2023-07-13T15:15:13;71586.56;;;-145.90;nan
57562;BME280;43397;51.530;5.974;2023-07-13T15:17:42;71507.59;;;-145.90;nan
57562;BME280;43397;51.530;5.974;2023-07-13T15:20:27;71390.19;;;-145.90;nan
57562;BME280;43397;51.530;5.974;2023-07-13T15:22:54;71629.09;;;-145.90;nan
57562;BME280;43397;51.530;5.974;2023-07-13T15:25:22;71402.34;;;-145.90;nan
57562;BME280;43397;51.530;5.974;2023-07-13T15:27:48;71863.94;;;-145.90;nan
57562;BME280;43397;51.530;5.974;2023-07-13T15:30:14;71631.13;;;-145.90;nan
57562;BME280;43397;51.530;5.974;2023-07-13T15:32:43;71374.00;;;-145.90;nan
57562;BME280;43397;51.530;5.974;2023-07-13T15:35:14;71029.84;;;-145.90;nan
57562;BME280;43397;51.530;5.974;2023-07-13T15:37:40;70871.94;;;-145.90;nan
57562;BME280;43397;51.530;5.974;2023-07-13T15:40:07;71248.47;;;-145.90;nan
57562;BME280;43397;51.530;5.974;2023-07-13T15:42:33;71151.28;;;-145.90;nan
57562;BME280;43397;51.530;5.974;2023-07-13T15:44:59;71244.41;;;-145.90;nan
57562;BME280;43397;51.530;5.974;2023-07-13T15:47:25;71378.03;;;-145.90;nan
57562;BME280;43397;51.530;5.974;2023-07-13T15:49:52;71305.16;;;-145.90;nan
57562;BME280;43397;51.530;5.974;2023-07-13T15:52:22;71315.28;;;-145.90;nan
57562;BME280;43397;51.530;5.974;2023-07-13T15:54:48;71070.31;;;-145.90;nan
57562;BME280;43397;51.530;5.974;2023-07-13T15:57:15;70865.88;;;-145.90;nan
57562;BME280;43397;51.530;5.974;2023-07-13T15:59:41;71214.06;;;-145.90;nan
57562;BME280;43397;51.530;5.974;2023-07-13T16:02:16;71027.81;;;-145.90;nan
57562;BME280;43397;51.530;5.974;2023-07-13T16:04:43;70803.13;;;-145.90;nan
57562;BME280;43397;51.530;5.974;2023-07-13T16:07:11;71321.34;;;-145.90;nan
57562;BME280;43397;51.530;5.974;2023-07-13T16:09:38;70849.66;;;-145.90;nan
57562;BME280;43397;51.530;5.974;2023-07-13T16:12:09;71461.03;;;-145.90;nan
57562;BME280;43397;51.530;5.974;2023-07-13T16:14:35;71602.75;;;-145.90;nan
57562;BME280;43397;51.530;5.974;2023-07-13T16:17:02;71163.44;;;-145.90;nan
57562;BME280;43397;51.530;5.974;2023-07-13T16:19:27;71446.88;;;-145.90;nan
57562;BME280;43397;51.530;5.974;2023-07-13T16:21:53;71102.72;;;-145.90;nan
57562;BME280;43397;51.530;5.974;2023-07-13T16:24:22;71155.34;;;-145.90;nan
57562;BME280;43397;51.530;5.974;2023-07-13T16:26:49;71479.25;;;-145.90;nan
57562;BME280;43397;51.530;5.974;2023-07-13T16:29:17;71201.91;;;-145.90;nan
57562;BME280;43397;51.530;5.974;2023-07-13T16:31:58;71127.00;;;-145.90;nan
57562;BME280;43397;51.530;5.974;2023-07-13T16:34:24;71062.22;;;-145.90;nan
57562;BME280;43397;51.530;5.974;2023-07-13T16:36:50;70963.03;;;-145.90;nan
57562;BME280;43397;51.530;5.974;2023-07-13T16:39:16;71153.31;;;-145.90;nan
57562;BME280;43397;51.530;5.974;2023-07-13T16:41:43;71317.31;;;-145.90;nan
57562;BME280;43397;51.530;5.974;2023-07-13T16:44:11;71274.78;;;-145.90;nan
57562;BME280;43397;51.530;5.974;2023-07-13T16:46:37;71086.50;;;-145.90;nan
57562;BME280;43397;51.530;5.974;2023-07-13T16:49:04;71199.88;;;-145.90;nan
57562;BME280;43397;51.530;5.974;2023-07-13T16:51:30;70932.66;;;-145.90;nan
57562;BME280;43397;51.530;5.974;2023-07-13T16:53:58;71001.50;;;-145.90;nan
57562;BME280;43397;51.530;5.974;2023-07-13T16:56:24;70873.97;;;-145.90;nan
57562;BME280;43397;51.530;5.974;2023-07-13T16:58:52;70819.31;;;-145.90;nan
57562;BME280;43397;51.530;5.974;2023-07-13T17:01:18;70651.31;;;-145.90;nan
57562;BME280;43397;51.530;5.974;2023-07-13T17:03:43;70908.38;;;-145.90;nan
57562;BME280;43397;51.530;5.974;2023-07-13T17:06:20;70697.84;;;-145.90;nan
57562;BME280;43397;51.530;5.974;2023-07-13T17:08:47;70760.59;;;-145.90;nan
57562;BME280;43397;51.530;5.974;2023-07-13T17:11:13;71048.06;;;-145.90;nan
57562;BME280;43397;51.530;5.974;2023-07-13T17:13:39;71181.66;;;-145.90;nan
57562;BME280;43397;51.530;5.974;2023-07-13T17:16:09;71228.22;;;-145.90;nan
57562;BME280;43397;51.530;5.974;2023-07-13T17:18:34;71286.94;;;-145.90;nan
57562;BME280;43397;51.530;5.974;2023-07-13T17:21:00;71218.09;;;-145.90;nan
57562;BME280;43397;51.530;5.974;2023-07-13T17:23:26;71293.00;;;-145.90;nan
57562;BME280;43397;51.530;5.974;2023-07-13T17:25:53;71454.97;;;-145.90;nan
57562;BME280;43397;51.530;5.974;2023-07-13T17:28:20;71321.34;;;-145.90;nan
57562;BME280;43397;51.530;5.974;2023-07-13T17:30:48;71272.75;;;-145.90;nan
57562;BME280;43397;51.530;5.974;2023-07-13T17:33:25;71444.84;;;-145.90;nan
57562;BME280;43397;51.530;5.974;2023-07-13T17:35:51;71540.00;;;-145.90;nan
57562;BME280;43397;51.530;5.974;2023-07-13T17:38:17;71369.94;;;-145.90;nan
57562;BME280;43397;51.530;5.974;2023-07-13T17:40:43;71371.97;;;-145.90;nan
57562;BME280;43397;51.530;5.974;2023-07-13T17:43:09;72115.03;;;-145.90;nan
57562;BME280;43397;51.530;5.974;2023-07-13T17:45:35;71546.06;;;-145.90;nan
57562;BME280;43397;51.530;5.974;2023-07-13T17:48:01;71762.72;;;-145.90;nan
57562;BME280;43397;51.530;5.974;2023-07-13T17:50:30;71843.72;;;-145.90;nan
57562;BME280;43397;51.530;5.974;2023-07-13T17:52:56;71566.31;;;-145.90;nan
57562;BME280;43397;51.530;5.974;2023-07-13T17:55:22;71625.03;;;-145.90;nan
57562;BME280;43397;51.530;5.974;2023-07-13T17:57:48;71701.97;;;-145.90;nan
57562;BME280;43397;51.530;5.974;2023-07-13T18:00:18;71361.84;;;-145.90;nan
57562;BME280;43397;51.530;5.974;2023-07-13T18:02:44;71657.44;;;-145.90;nan
57562;BME280;43397;51.530;5.974;2023-07-13T18:05:12;71365.88;;;-145.90;nan
57562;BME280;43397;51.530;5.974;2023-07-13T18:07:39;71588.59;;;-145.90;nan
57562;BME280;43397;51.530;5.974;2023-07-13T18:10:12;71920.66;;;-145.90;nan
57562;BME280;43397;51.530;5.974;2023-07-13T18:12:38;71633.13;;;-145.90;nan
57562;BME280;43397;51.530;5.974;2023-07-13T18:15:05;71730.31;;;-145.90;nan
57562;BME280;43397;51.530;5.974;2023-07-13T18:17:31;71716.16;;;-145.90;nan
57562;BME280;43397;51.530;5.974;2023-07-13T18:19:57;71616.94;;;-145.90;nan
57562;BME280;43397;51.530;5.974;2023-07-13T18:22:23;71618.97;;;-145.90;nan
57562;BME280;43397;51.530;5.974;2023-07-13T18:24:50;71406.38;;;-145.90;nan
57562;BME280;43397;51.530;5.974;2023-07-13T18:27:16;71426.63;;;-145.90;nan
57562;BME280;43397;51.530;5.974;2023-07-13T18:29:41;71477.25;;;-145.90;nan
57562;BME280;43397;51.530;5.974;2023-07-13T18:32:13;71548.09;;;-145.90;nan
57562;BME280;43397;51.530;5.974;2023-07-13T18:34:41;71671.59;;;-145.90;nan
57562;BME280;43397;51.530;5.974;2023-07-13T18:37:15;71722.22;;;-145.90;nan
57562;BME280;43397;51.530;5.974;2023-07-13T18:39:42;71734.38;;;-145.90;nan
57562;BME280;43397;51.530;5.974;2023-07-13T18:42:10;71677.69;;;-145.90;nan
57562;BME280;43397;51.530;5.974;2023-07-13T18:44:35;71673.63;;;-145.90;nan
57562;BME280;43397;51.530;5.974;2023-07-13T18:47:02;71922.66;;;-145.90;nan
57562;BME280;43397;51.530;5.974;2023-07-13T18:49:28;71768.78;;;-145.90;nan
57562;BME280;43397;51.530;5.974;2023-07-13T18:51:53;71645.28;;;-145.90;nan
57562;BME280;43397;51.530;5.974;2023-07-13T18:54:19;71633.13;;;-145.90;nan
57562;BME280;43397;51.530;5.974;2023-07-13T18:56:45;71590.63;;;-145.90;nan
57562;BME280;43397;51.530;5.974;2023-07-13T18:59:12;71706.03;;;-145.90;nan
57562;BME280;43397;51.530;5.974;2023-07-13T19:01:38;71446.88;;;-145.90;nan
57562;BME280;43397;51.530;5.974;2023-07-13T19:04:26;71503.56;;;-145.90;nan
57562;BME280;43397;51.530;5.974;2023-07-13T19:06:53;71608.84;;;-145.90;nan
57562;BME280;43397;51.530;5.974;2023-07-13T19:09:18;71412.47;;;-145.90;nan
57562;BME280;43397;51.530;5.974;2023-07-13T19:11:44;71493.44;;;-145.90;nan
57562;BME280;43397;51.530;5.974;2023-07-13T19:14:12;71497.50;;;-145.90;nan
57562;BME280;43397;51.530;5.974;2023-07-13T19:16:40;71560.25;;;-145.90;nan
57562;BME280;43397;51.530;5.974;2023-07-13T19:19:11;71479.25;;;-145.90;nan
57562;BME280;43397;51.530;5.974;2023-07-13T19:21:39;71509.63;;;-145.90;nan
57562;BME280;43397;51.530;5.974;2023-07-13T19:24:05;71420.56;;;-145.90;nan
57562;BME280;43397;51.530;5.974;2023-07-13T19:26:36;71493.44;;;-145.90;nan
57562;BME280;43397;51.530;5.974;2023-07-13T19:29:03;71446.88;;;-145.90;nan
57562;BME280;43397;51.530;5.974;2023-07-13T19:31:32;71479.25;;;-145.90;nan
57562;BME280;43397;51.530;5.974;2023-07-13T19:33:59;71507.59;;;-145.90;nan
57562;BME280;43397;51.530;5.974;2023-07-13T19:36:27;71450.91;;;-145.90;nan
57562;BME280;43397;51.530;5.974;2023-07-13T19:38:53;71430.69;;;-145.90;nan
57562;BME280;43397;51.530;5.974;2023-07-13T19:41:20;71457.00;;;-145.90;nan
57562;BME280;43397;51.530;5.974;2023-07-13T19:43:47;71580.50;;;-145.90;nan
57562;BME280;43397;51.530;5.974;2023-07-13T19:46:20;71801.19;;;-145.90;nan
57562;BME280;43397;51.530;5.974;2023-07-13T19:48:50;71736.41;;;-145.90;nan
57562;BME280;43397;51.530;5.974;2023-07-13T19:51:19;71685.78;;;-145.90;nan
57562;BME280;43397;51.530;5.974;2023-07-13T19:53:45;71649.34;;;-145.90;nan
57562;BME280;43397;51.530;5.974;2023-07-13T19:56:11;71645.28;;;-145.90;nan
57562;BME280;43397;51.530;5.974;2023-07-13T19:58:37;71756.63;;;-145.90;nan
57562;BME280;43397;51.530;5.974;2023-07-13T20:01:03;71924.69;;;-145.90;nan
57562;BME280;43397;51.530;5.974;2023-07-13T20:03:28;71995.56;;;-145.90;nan
57562;BME280;43397;51.530;5.974;2023-07-13T20:05:56;72068.47;;;-145.90;nan
57562;BME280;43397;51.530;5.974;2023-07-13T20:08:22;71914.56;;;-145.90;nan
57562;BME280;43397;51.530;5.974;2023-07-13T20:10:48;71843.72;;;-145.90;nan
57562;BME280;43397;51.530;5.974;2023-07-13T20:13:14;71811.31;;;-145.90;nan
57562;BME280;43397;51.530;5.974;2023-07-13T20:15:40;71734.38;;;-145.90;nan
57562;BME280;43397;51.530;5.974;2023-07-13T20:18:11;71768.78;;;-145.90;nan
57562;BME280;43397;51.530;5.974;2023-07-13T20:20:39;71817.38;;;-145.90;nan
57562;BME280;43397;51.530;5.974;2023-07-13T20:23:12;71845.72;;;-145.90;nan
57562;BME280;43397;51.530;5.974;2023-07-13T20:25:39;71900.41;;;-145.90;nan
57562;BME280;43397;51.530;5.974;2023-07-13T20:28:05;71953.03;;;-145.90;nan
57562;BME280;43397;51.530;5.974;2023-07-13T20:30:32;71977.34;;;-145.90;nan
57562;BME280;43397;51.530;5.974;2023-07-13T20:33:00;72017.84;;;-145.90;nan
57562;BME280;43397;51.530;5.974;2023-07-13T20:35:29;71977.34;;;-145.90;nan
57562;BME280;43397;51.530;5.974;2023-07-13T20:37:56;71888.25;;;-145.90;nan
57562;BME280;43397;51.530;5.974;2023-07-13T20:40:25;71874.06;;;-145.90;nan
57562;BME280;43397;51.530;5.974;2023-07-13T20:42:52;71870.03;;;-145.90;nan
57562;BME280;43397;51.530;5.974;2023-07-13T20:45:18;71944.94;;;-145.90;nan
57562;BME280;43397;51.530;5.974;2023-07-13T20:47:46;71951.03;;;-145.90;nan
57562;BME280;43397;51.530;5.974;2023-07-13T20:50:19;71949.00;;;-145.90;nan
57562;BME280;43397;51.530;5.974;2023-07-13T20:52:48;71987.47;;;-145.90;nan
57562;BME280;43397;51.530;5.974;2023-07-13T20:55:16;72003.66;;;-145.90;nan
57562;BME280;43397;51.530;5.974;2023-07-13T20:57:44;71957.09;;;-145.90;nan
57562;BME280;43397;51.530;5.974;2023-07-13T21:00:13;71874.06;;;-145.90;nan
57562;BME280;43397;51.530;5.974;2023-07-13T21:02:40;71789.03;;;-145.90;nan
57562;BME280;43397;51.530;5.974;2023-07-13T21:05:12;71789.03;;;-145.90;nan
57562;BME280;43397;51.530;5.974;2023-07-13T21:07:39;71942.91;;;-145.90;nan
57562;BME280;43397;51.530;5.974;2023-07-13T21:10:13;72078.59;;;-145.90;nan
57562;BME280;43397;51.530;5.974;2023-07-13T21:12:39;71995.56;;;-145.90;nan
57562;BME280;43397;51.530;5.974;2023-07-13T21:15:07;72017.84;;;-145.90;nan
57562;BME280;43397;51.530;5.974;2023-07-13T21:17:34;72015.81;;;-145.90;nan
57562;BME280;43397;51.530;5.974;2023-07-13T21:20:00;72121.09;;;-145.90;nan
57562;BME280;43397;51.530;5.974;2023-07-13T21:22:26;71868.00;;;-145.90;nan
57562;BME280;43397;51.530;5.974;2023-07-13T21:24:52;71819.41;;;-145.90;nan
57562;BME280;43397;51.530;5.974;2023-07-13T21:27:18;71841.69;;;-145.90;nan
57562;BME280;43397;51.530;5.974;2023-07-13T21:29:44;71918.63;;;-145.90;nan
57562;BME280;43397;51.530;5.974;2023-07-13T21:32:13;71951.03;;;-145.90;nan
57562;BME280;43397;51.530;5.974;2023-07-13T21:34:40;72007.72;;;-145.90;nan
57562;BME280;43397;51.530;5.974;2023-07-13T21:37:14;72072.50;;;-145.90;nan
57562;BME280;43397;51.530;5.974;2023-07-13T21:39:49;71949.00;;;-145.90;nan
57562;BME280;43397;51.530;5.974;2023-07-13T21:42:16;72129.22;;;-145.90;nan
57562;BME280;43397;51.530;5.974;2023-07-13T21:44:42;72212.22;;;-145.90;nan
57562;BME280;43397;51.530;5.974;2023-07-13T21:47:10;72222.34;;;-145.90;nan
57562;BME280;43397;51.530;5.974;2023-07-13T21:49:38;72222.34;;;-145.90;nan
57562;BME280;43397;51.530;5.974;2023-07-13T21:52:13;72119.09;;;-145.90;nan
57562;BME280;43397;51.530;5.974;2023-07-13T21:54:40;72066.44;;;-145.90;nan
57562;BME280;43397;51.530;5.974;2023-07-13T21:57:13;72129.22;;;-145.90;nan
57562;BME280;43397;51.530;5.974;2023-07-13T21:59:40;72139.34;;;-145.90;nan
57562;BME280;43397;51.530;5.974;2023-07-13T22:02:10;72040.13;;;-145.90;nan
57562;BME280;43397;51.530;5.974;2023-07-13T22:04:38;72135.28;;;-145.90;nan
57562;BME280;43397;51.530;5.974;2023-07-13T22:07:04;72086.69;;;-145.90;nan
57562;BME280;43397;51.530;5.974;2023-07-13T22:09:31;72171.72;;;-145.90;nan
57562;BME280;43397;51.530;5.974;2023-07-13T22:11:59;72102.88;;;-145.90;nan
57562;BME280;43397;51.530;5.974;2023-07-13T22:14:25;72125.16;;;-145.90;nan
57562;BME280;43397;51.530;5.974;2023-07-13T22:16:51;72064.41;;;-145.90;nan
57562;BME280;43397;51.530;5.974;2023-07-13T22:19:19;72244.63;;;-145.90;nan
57562;BME280;43397;51.530;5.974;2023-07-13T22:21:46;72285.13;;;-145.90;nan
57562;BME280;43397;51.530;5.974;2023-07-13T22:24:13;72297.28;;;-145.90;nan
57562;BME280;43397;51.530;5.974;2023-07-13T22:26:40;72206.16;;;-145.90;nan
57562;BME280;43397;51.530;5.974;2023-07-13T22:29:10;72404.59;;;-145.90;nan
57562;BME280;43397;51.530;5.974;2023-07-13T22:31:37;72459.28;;;-145.90;nan
57562;BME280;43397;51.530;5.974;2023-07-13T22:34:03;72337.78;;;-145.90;nan
57562;BME280;43397;51.530;5.974;2023-07-13T22:36:29;72291.19;;;-145.90;nan
57562;BME280;43397;51.530;5.974;2023-07-13T22:38:56;72066.44;;;-145.90;nan
57562;BME280;43397;51.530;5.974;2023-07-13T22:41:22;72218.31;;;-145.90;nan
57562;BME280;43397;51.530;5.974;2023-07-13T22:43:48;72036.06;;;-145.90;nan
57562;BME280;43397;51.530;5.974;2023-07-13T22:46:18;72121.09;;;-145.90;nan
57562;BME280;43397;51.530;5.974;2023-07-13T22:48:53;72337.78;;;-145.90;nan
57562;BME280;43397;51.530;5.974;2023-07-13T22:51:19;72647.63;;;-145.90;nan
57562;BME280;43397;51.530;5.974;2023-07-13T22:53:45;72384.34;;;-145.90;nan
57562;BME280;43397;51.530;5.974;2023-07-13T22:56:13;72214.25;;;-145.90;nan
57562;BME280;43397;51.530;5.974;2023-07-13T22:58:39;72119.09;;;-145.90;nan
57562;BME280;43397;51.530;5.974;2023-07-13T23:01:13;72009.75;;;-145.90;nan
57562;BME280;43397;51.530;5.974;2023-07-13T23:03:40;72082.63;;;-145.90;nan
57562;BME280;43397;51.530;5.974;2023-07-13T23:06:12;71975.31;;;-145.90;nan
57562;BME280;43397;51.530;5.974;2023-07-13T23:08:40;71957.09;;;-145.90;nan
57562;BME280;43397;51.530;5.974;2023-07-13T23:11:08;71991.50;;;-145.90;nan
57562;BME280;43397;51.530;5.974;2023-07-13T23:13:36;71946.97;;;-145.90;nan
57562;BME280;43397;51.530;5.974;2023-07-13T23:16:04;71890.28;;;-145.90;nan
57562;BME280;43397;51.530;5.974;2023-07-13T23:18:30;71890.28;;;-145.90;nan
57562;BME280;43397;51.530;5.974;2023-07-13T23:20:56;71951.03;;;-145.90;nan
57562;BME280;43397;51.530;5.974;2023-07-13T23:23:22;71993.53;;;-145.90;nan
57562;BME280;43397;51.530;5.974;2023-07-13T23:25:48;71959.13;;;-145.90;nan
57562;BME280;43397;51.530;5.974;2023-07-13T23:28:14;71944.94;;;-145.90;nan
57562;BME280;43397;51.530;5.974;2023-07-13T23:30:45;71969.25;;;-145.90;nan
57562;BME280;43397;51.530;5.974;2023-07-13T23:33:19;72023.91;;;-145.90;nan
57562;BME280;43397;51.530;5.974;2023-07-13T23:35:47;71993.53;;;-145.90;nan
57562;BME280;43397;51.530;5.974;2023-07-13T23:38:13;72129.22;;;-145.90;nan
57562;BME280;43397;51.530;5.974;2023-07-13T23:40:39;72098.84;;;-145.90;nan
57562;BME280;43397;51.530;5.974;2023-07-13T23:43:05;72080.59;;;-145.90;nan
57562;BME280;43397;51.530;5.974;2023-07-13T23:45:31;72127.19;;;-145.90;nan
57562;BME280;43397;51.530;5.974;2023-07-13T23:47:59;72208.19;;;-145.90;nan
57562;BME280;43397;51.530;5.974;2023-07-13T23:50:27;72232.47;;;-145.90;nan
57562;BME280;43397;51.530;5.974;2023-07-13T23:52:53;72194.00;;;-145.90;nan
57562;BME280;43397;51.530;5.974;2023-07-13T23:55:21;72151.47;;;-145.90;nan
57562;BME280;43397;51.530;5.974;2023-07-13T23:57:48;72740.78;;;-145.90;nan
